sensor_id;sensor_type;location;lat;lon;timestamp;P1;durP1;ratioP1;P2;durP2;ratioP2
53875;SDS011;39789;53.216;5.624;2023-04-12T00:00:10;8.38;;;3.33;;
53875;SDS011;39789;53.216;5.624;2023-04-12T00:02:37;9.88;;;3.20;;
53875;SDS011;39789;53.216;5.624;2023-04-12T00:05:03;6.00;;;3.17;;
53875;SDS011;39789;53.216;5.624;2023-04-12T00:07:29;7.47;;;3.50;;
53875;SDS011;39789;53.216;5.624;2023-04-12T00:09:55;11.30;;;3.55;;
53875;SDS011;39789;53.216;5.624;2023-04-12T00:12:20;7.65;;;3.30;;
53875;SDS011;39789;53.216;5.624;2023-04-12T00:14:46;9.98;;;3.53;;
53875;SDS011;39789;53.216;5.624;2023-04-12T00:17:12;11.20;;;3.42;;
53875;SDS011;39789;53.216;5.624;2023-04-12T00:19:38;14.30;;;3.60;;
53875;SDS011;39789;53.216;5.624;2023-04-12T00:22:10;11.00;;;3.25;;
53875;SDS011;39789;53.216;5.624;2023-04-12T00:24:39;8.07;;;3.70;;
53875;SDS011;39789;53.216;5.624;2023-04-12T00:27:05;7.28;;;3.78;;
53875;SDS011;39789;53.216;5.624;2023-04-12T00:29:31;11.60;;;3.83;;
53875;SDS011;39789;53.216;5.624;2023-04-12T00:31:57;10.65;;;3.17;;
53875;SDS011;39789;53.216;5.624;2023-04-12T00:34:25;9.48;;;3.78;;
53875;SDS011;39789;53.216;5.624;2023-04-12T00:36:52;11.38;;;4.25;;
53875;SDS011;39789;53.216;5.624;2023-04-12T00:39:18;9.73;;;3.50;;
53875;SDS011;39789;53.216;5.624;2023-04-12T00:41:43;9.32;;;4.00;;
53875;SDS011;39789;53.216;5.624;2023-04-12T00:44:09;8.00;;;3.70;;
53875;SDS011;39789;53.216;5.624;2023-04-12T00:46:34;11.13;;;3.75;;
53875;SDS011;39789;53.216;5.624;2023-04-12T00:49:02;9.18;;;3.33;;
53875;SDS011;39789;53.216;5.624;2023-04-12T00:51:28;10.88;;;4.25;;
53875;SDS011;39789;53.216;5.624;2023-04-12T00:53:57;10.50;;;3.88;;
53875;SDS011;39789;53.216;5.624;2023-04-12T00:56:24;16.77;;;4.38;;
53875;SDS011;39789;53.216;5.624;2023-04-12T00:58:51;12.60;;;4.40;;
53875;SDS011;39789;53.216;5.624;2023-04-12T01:01:17;10.95;;;3.88;;
53875;SDS011;39789;53.216;5.624;2023-04-12T01:03:43;6.55;;;3.15;;
53875;SDS011;39789;53.216;5.624;2023-04-12T01:17:09;8.55;;;4.00;;
53875;SDS011;39789;53.216;5.624;2023-04-12T01:19:55;8.45;;;3.33;;
53875;SDS011;39789;53.216;5.624;2023-04-12T01:27:45;7.50;;;3.33;;
53875;SDS011;39789;53.216;5.624;2023-04-12T01:30:14;11.18;;;4.20;;
53875;SDS011;39789;53.216;5.624;2023-04-12T01:32:44;11.32;;;4.20;;
53875;SDS011;39789;53.216;5.624;2023-04-12T01:35:12;7.85;;;3.55;;
53875;SDS011;39789;53.216;5.624;2023-04-12T01:37:38;7.50;;;3.30;;
53875;SDS011;39789;53.216;5.624;2023-04-12T01:40:05;8.95;;;3.70;;
53875;SDS011;39789;53.216;5.624;2023-04-12T01:42:34;13.88;;;3.53;;
53875;SDS011;39789;53.216;5.624;2023-04-12T01:45:01;6.72;;;3.17;;
53875;SDS011;39789;53.216;5.624;2023-04-12T01:47:27;7.07;;;3.50;;
53875;SDS011;39789;53.216;5.624;2023-04-12T01:50:11;8.43;;;3.28;;
53875;SDS011;39789;53.216;5.624;2023-04-12T01:52:54;5.32;;;3.33;;
53875;SDS011;39789;53.216;5.624;2023-04-12T01:55:27;6.22;;;3.55;;
53875;SDS011;39789;53.216;5.624;2023-04-12T01:57:55;6.43;;;3.17;;
53875;SDS011;39789;53.216;5.624;2023-04-12T02:00:22;7.93;;;3.38;;
53875;SDS011;39789;53.216;5.624;2023-04-12T02:02:48;10.25;;;3.00;;
53875;SDS011;39789;53.216;5.624;2023-04-12T02:05:14;4.50;;;2.92;;
53875;SDS011;39789;53.216;5.624;2023-04-12T02:07:42;7.75;;;3.13;;
53875;SDS011;39789;53.216;5.624;2023-04-12T02:10:13;7.78;;;3.25;;
53875;SDS011;39789;53.216;5.624;2023-04-12T02:12:39;5.80;;;2.88;;
53875;SDS011;39789;53.216;5.624;2023-04-12T02:15:05;11.18;;;3.60;;
53875;SDS011;39789;53.216;5.624;2023-04-12T02:17:32;7.85;;;3.60;;
53875;SDS011;39789;53.216;5.624;2023-04-12T02:20:00;8.05;;;3.65;;
53875;SDS011;39789;53.216;5.624;2023-04-12T02:22:26;6.88;;;3.60;;
53875;SDS011;39789;53.216;5.624;2023-04-12T02:24:51;8.60;;;3.42;;
53875;SDS011;39789;53.216;5.624;2023-04-12T02:27:17;6.72;;;3.53;;
53875;SDS011;39789;53.216;5.624;2023-04-12T02:29:43;6.05;;;2.67;;
53875;SDS011;39789;53.216;5.624;2023-04-12T02:32:09;7.78;;;3.60;;
53875;SDS011;39789;53.216;5.624;2023-04-12T02:34:35;7.97;;;3.13;;
53875;SDS011;39789;53.216;5.624;2023-04-12T02:37:02;4.38;;;2.50;;
53875;SDS011;39789;53.216;5.624;2023-04-12T02:39:28;11.73;;;3.47;;
53875;SDS011;39789;53.216;5.624;2023-04-12T02:41:56;6.68;;;2.45;;
53875;SDS011;39789;53.216;5.624;2023-04-12T02:44:21;5.28;;;2.80;;
53875;SDS011;39789;53.216;5.624;2023-04-12T02:46:47;5.00;;;2.60;;
53875;SDS011;39789;53.216;5.624;2023-04-12T02:49:13;5.10;;;2.97;;
53875;SDS011;39789;53.216;5.624;2023-04-12T02:51:38;8.57;;;2.83;;
53875;SDS011;39789;53.216;5.624;2023-04-12T02:54:04;3.38;;;2.60;;
53875;SDS011;39789;53.216;5.624;2023-04-12T02:56:30;7.97;;;3.03;;
53875;SDS011;39789;53.216;5.624;2023-04-12T02:58:58;4.85;;;3.10;;
53875;SDS011;39789;53.216;5.624;2023-04-12T03:01:24;6.85;;;3.28;;
53875;SDS011;39789;53.216;5.624;2023-04-12T03:03:50;6.75;;;3.13;;
53875;SDS011;39789;53.216;5.624;2023-04-12T03:06:16;6.25;;;3.35;;
53875;SDS011;39789;53.216;5.624;2023-04-12T03:08:41;6.13;;;2.80;;
53875;SDS011;39789;53.216;5.624;2023-04-12T03:11:07;5.00;;;2.58;;
53875;SDS011;39789;53.216;5.624;2023-04-12T03:13:32;6.63;;;3.00;;
53875;SDS011;39789;53.216;5.624;2023-04-12T03:15:58;10.50;;;3.15;;
53875;SDS011;39789;53.216;5.624;2023-04-12T03:18:24;9.07;;;3.00;;
53875;SDS011;39789;53.216;5.624;2023-04-12T03:20:50;10.48;;;3.08;;
53875;SDS011;39789;53.216;5.624;2023-04-12T03:23:16;5.70;;;2.85;;
53875;SDS011;39789;53.216;5.624;2023-04-12T03:25:42;6.00;;;3.00;;
53875;SDS011;39789;53.216;5.624;2023-04-12T03:28:08;5.45;;;3.38;;
53875;SDS011;39789;53.216;5.624;2023-04-12T03:30:34;6.63;;;3.20;;
53875;SDS011;39789;53.216;5.624;2023-04-12T03:33:00;4.82;;;3.00;;
53875;SDS011;39789;53.216;5.624;2023-04-12T03:35:25;5.28;;;3.30;;
53875;SDS011;39789;53.216;5.624;2023-04-12T03:37:51;8.05;;;3.33;;
53875;SDS011;39789;53.216;5.624;2023-04-12T03:40:16;7.30;;;2.95;;
53875;SDS011;39789;53.216;5.624;2023-04-12T03:42:42;8.10;;;3.67;;
53875;SDS011;39789;53.216;5.624;2023-04-12T03:45:07;6.50;;;2.90;;
53875;SDS011;39789;53.216;5.624;2023-04-12T03:47:33;4.45;;;2.78;;
53875;SDS011;39789;53.216;5.624;2023-04-12T03:50:03;6.60;;;3.30;;
53875;SDS011;39789;53.216;5.624;2023-04-12T03:52:34;6.40;;;2.88;;
53875;SDS011;39789;53.216;5.624;2023-04-12T03:55:00;6.32;;;3.10;;
53875;SDS011;39789;53.216;5.624;2023-04-12T03:57:27;7.72;;;3.20;;
53875;SDS011;39789;53.216;5.624;2023-04-12T03:59:53;5.82;;;2.72;;
53875;SDS011;39789;53.216;5.624;2023-04-12T04:02:18;8.57;;;3.22;;
53875;SDS011;39789;53.216;5.624;2023-04-12T04:04:44;7.95;;;3.10;;
53875;SDS011;39789;53.216;5.624;2023-04-12T04:07:10;6.57;;;3.58;;
53875;SDS011;39789;53.216;5.624;2023-04-12T04:09:35;8.40;;;3.22;;
53875;SDS011;39789;53.216;5.624;2023-04-12T04:12:01;8.25;;;3.72;;
53875;SDS011;39789;53.216;5.624;2023-04-12T04:14:27;11.07;;;3.97;;
53875;SDS011;39789;53.216;5.624;2023-04-12T04:16:52;8.48;;;3.55;;
53875;SDS011;39789;53.216;5.624;2023-04-12T04:19:19;6.85;;;3.67;;
53875;SDS011;39789;53.216;5.624;2023-04-12T04:21:45;7.90;;;4.50;;
53875;SDS011;39789;53.216;5.624;2023-04-12T04:24:11;8.82;;;4.40;;
53875;SDS011;39789;53.216;5.624;2023-04-12T04:26:38;6.03;;;3.67;;
53875;SDS011;39789;53.216;5.624;2023-04-12T04:29:04;8.38;;;3.80;;
53875;SDS011;39789;53.216;5.624;2023-04-12T04:31:30;7.72;;;4.38;;
53875;SDS011;39789;53.216;5.624;2023-04-12T04:34:03;9.82;;;4.57;;
53875;SDS011;39789;53.216;5.624;2023-04-12T04:36:33;9.68;;;4.78;;
53875;SDS011;39789;53.216;5.624;2023-04-12T04:38:59;8.30;;;4.10;;
53875;SDS011;39789;53.216;5.624;2023-04-12T04:41:26;8.40;;;4.82;;
53875;SDS011;39789;53.216;5.624;2023-04-12T04:43:51;10.13;;;4.80;;
53875;SDS011;39789;53.216;5.624;2023-04-12T04:46:18;8.98;;;5.53;;
53875;SDS011;39789;53.216;5.624;2023-04-12T04:48:49;8.80;;;3.70;;
53875;SDS011;39789;53.216;5.624;2023-04-12T04:51:19;8.60;;;4.85;;
53875;SDS011;39789;53.216;5.624;2023-04-12T04:53:44;7.28;;;3.78;;
53875;SDS011;39789;53.216;5.624;2023-04-12T04:56:10;7.40;;;3.38;;
53875;SDS011;39789;53.216;5.624;2023-04-12T04:58:36;7.50;;;3.72;;
53875;SDS011;39789;53.216;5.624;2023-04-12T05:01:03;8.02;;;3.55;;
53875;SDS011;39789;53.216;5.624;2023-04-12T05:03:29;8.68;;;3.95;;
53875;SDS011;39789;53.216;5.624;2023-04-12T05:05:58;6.43;;;3.60;;
53875;SDS011;39789;53.216;5.624;2023-04-12T05:08:27;7.43;;;4.10;;
53875;SDS011;39789;53.216;5.624;2023-04-12T05:10:54;7.18;;;3.60;;
53875;SDS011;39789;53.216;5.624;2023-04-12T05:13:20;7.88;;;3.28;;
53875;SDS011;39789;53.216;5.624;2023-04-12T05:15:47;5.32;;;3.10;;
53875;SDS011;39789;53.216;5.624;2023-04-12T05:18:13;7.47;;;3.63;;
53875;SDS011;39789;53.216;5.624;2023-04-12T05:20:39;6.60;;;3.38;;
53875;SDS011;39789;53.216;5.624;2023-04-12T05:23:05;8.30;;;4.00;;
53875;SDS011;39789;53.216;5.624;2023-04-12T05:25:31;8.77;;;4.32;;
53875;SDS011;39789;53.216;5.624;2023-04-12T05:27:57;6.47;;;3.90;;
53875;SDS011;39789;53.216;5.624;2023-04-12T05:30:22;6.50;;;4.15;;
53875;SDS011;39789;53.216;5.624;2023-04-12T05:32:48;7.95;;;3.60;;
53875;SDS011;39789;53.216;5.624;2023-04-12T05:35:14;6.90;;;3.88;;
53875;SDS011;39789;53.216;5.624;2023-04-12T05:37:40;7.18;;;4.40;;
53875;SDS011;39789;53.216;5.624;2023-04-12T05:40:05;7.20;;;4.80;;
53875;SDS011;39789;53.216;5.624;2023-04-12T05:42:33;9.13;;;4.10;;
53875;SDS011;39789;53.216;5.624;2023-04-12T05:45:01;7.28;;;4.00;;
53875;SDS011;39789;53.216;5.624;2023-04-12T05:47:27;6.78;;;4.53;;
53875;SDS011;39789;53.216;5.624;2023-04-12T05:49:53;6.13;;;4.45;;
53875;SDS011;39789;53.216;5.624;2023-04-12T05:52:18;8.18;;;4.28;;
53875;SDS011;39789;53.216;5.624;2023-04-12T05:54:44;4.05;;;3.50;;
53875;SDS011;39789;53.216;5.624;2023-04-12T05:57:10;8.68;;;3.78;;
53875;SDS011;39789;53.216;5.624;2023-04-12T05:59:36;5.70;;;3.33;;
53875;SDS011;39789;53.216;5.624;2023-04-12T06:02:02;5.20;;;3.25;;
53875;SDS011;39789;53.216;5.624;2023-04-12T06:04:27;5.60;;;3.75;;
53875;SDS011;39789;53.216;5.624;2023-04-12T06:06:53;7.50;;;3.42;;
53875;SDS011;39789;53.216;5.624;2023-04-12T06:09:20;6.07;;;3.40;;
53875;SDS011;39789;53.216;5.624;2023-04-12T06:11:45;5.63;;;3.55;;
53875;SDS011;39789;53.216;5.624;2023-04-12T06:14:11;5.50;;;3.53;;
53875;SDS011;39789;53.216;5.624;2023-04-12T06:16:37;5.63;;;3.38;;
53875;SDS011;39789;53.216;5.624;2023-04-12T06:19:02;5.60;;;3.28;;
53875;SDS011;39789;53.216;5.624;2023-04-12T06:21:28;8.57;;;3.42;;
53875;SDS011;39789;53.216;5.624;2023-04-12T06:23:53;4.32;;;2.88;;
53875;SDS011;39789;53.216;5.624;2023-04-12T06:26:19;5.72;;;3.92;;
53875;SDS011;39789;53.216;5.624;2023-04-12T06:28:45;5.22;;;3.50;;
53875;SDS011;39789;53.216;5.624;2023-04-12T06:31:10;5.85;;;3.13;;
53875;SDS011;39789;53.216;5.624;2023-04-12T06:33:36;7.28;;;3.78;;
53875;SDS011;39789;53.216;5.624;2023-04-12T06:36:02;5.93;;;3.63;;
53875;SDS011;39789;53.216;5.624;2023-04-12T06:38:27;6.75;;;3.28;;
53875;SDS011;39789;53.216;5.624;2023-04-12T06:40:53;6.55;;;3.70;;
53875;SDS011;39789;53.216;5.624;2023-04-12T06:43:18;7.15;;;4.07;;
53875;SDS011;39789;53.216;5.624;2023-04-12T06:45:46;9.00;;;4.65;;
53875;SDS011;39789;53.216;5.624;2023-04-12T06:48:12;5.55;;;4.00;;
53875;SDS011;39789;53.216;5.624;2023-04-12T06:50:37;6.18;;;4.40;;
53875;SDS011;39789;53.216;5.624;2023-04-12T06:53:03;7.45;;;4.05;;
53875;SDS011;39789;53.216;5.624;2023-04-12T06:55:29;7.38;;;4.22;;
53875;SDS011;39789;53.216;5.624;2023-04-12T06:57:55;5.65;;;4.30;;
53875;SDS011;39789;53.216;5.624;2023-04-12T07:00:20;5.68;;;4.57;;
53875;SDS011;39789;53.216;5.624;2023-04-12T07:02:46;6.07;;;4.60;;
53875;SDS011;39789;53.216;5.624;2023-04-12T07:05:12;6.65;;;4.15;;
53875;SDS011;39789;53.216;5.624;2023-04-12T07:07:38;5.90;;;4.55;;
53875;SDS011;39789;53.216;5.624;2023-04-12T07:10:04;7.95;;;4.55;;
53875;SDS011;39789;53.216;5.624;2023-04-12T07:12:30;8.60;;;4.88;;
53875;SDS011;39789;53.216;5.624;2023-04-12T07:14:56;4.78;;;3.75;;
53875;SDS011;39789;53.216;5.624;2023-04-12T07:17:22;5.50;;;3.60;;
53875;SDS011;39789;53.216;5.624;2023-04-12T07:19:50;7.03;;;3.53;;
53875;SDS011;39789;53.216;5.624;2023-04-12T07:22:17;6.05;;;4.32;;
53875;SDS011;39789;53.216;5.624;2023-04-12T07:24:43;5.80;;;3.53;;
53875;SDS011;39789;53.216;5.624;2023-04-12T07:27:08;6.32;;;3.65;;
53875;SDS011;39789;53.216;5.624;2023-04-12T07:29:35;7.45;;;4.20;;
53875;SDS011;39789;53.216;5.624;2023-04-12T07:32:01;6.97;;;4.20;;
53875;SDS011;39789;53.216;5.624;2023-04-12T07:34:28;6.53;;;4.07;;
53875;SDS011;39789;53.216;5.624;2023-04-12T07:36:54;6.07;;;3.58;;
53875;SDS011;39789;53.216;5.624;2023-04-12T07:39:20;6.65;;;3.60;;
53875;SDS011;39789;53.216;5.624;2023-04-12T07:41:46;5.43;;;4.07;;
53875;SDS011;39789;53.216;5.624;2023-04-12T07:44:13;6.20;;;4.13;;
53875;SDS011;39789;53.216;5.624;2023-04-12T07:46:39;5.88;;;4.35;;
53875;SDS011;39789;53.216;5.624;2023-04-12T07:49:05;9.05;;;4.20;;
53875;SDS011;39789;53.216;5.624;2023-04-12T07:51:32;6.97;;;3.97;;
53875;SDS011;39789;53.216;5.624;2023-04-12T07:53:58;5.68;;;3.83;;
53875;SDS011;39789;53.216;5.624;2023-04-12T07:56:23;13.00;;;4.22;;
53875;SDS011;39789;53.216;5.624;2023-04-12T07:58:49;8.25;;;4.10;;
53875;SDS011;39789;53.216;5.624;2023-04-12T08:01:15;8.68;;;4.43;;
53875;SDS011;39789;53.216;5.624;2023-04-12T08:03:40;6.97;;;4.13;;
53875;SDS011;39789;53.216;5.624;2023-04-12T08:06:06;13.57;;;5.25;;
53875;SDS011;39789;53.216;5.624;2023-04-12T08:08:32;10.88;;;4.45;;
53875;SDS011;39789;53.216;5.624;2023-04-12T08:10:58;9.85;;;4.78;;
53875;SDS011;39789;53.216;5.624;2023-04-12T08:13:26;11.23;;;5.00;;
53875;SDS011;39789;53.216;5.624;2023-04-12T08:15:52;7.82;;;4.32;;
53875;SDS011;39789;53.216;5.624;2023-04-12T08:18:17;10.63;;;4.75;;
53875;SDS011;39789;53.216;5.624;2023-04-12T08:20:43;10.85;;;5.03;;
53875;SDS011;39789;53.216;5.624;2023-04-12T08:23:12;14.15;;;5.38;;
53875;SDS011;39789;53.216;5.624;2023-04-12T08:25:38;13.20;;;4.45;;
53875;SDS011;39789;53.216;5.624;2023-04-12T08:28:03;14.10;;;5.10;;
53875;SDS011;39789;53.216;5.624;2023-04-12T08:30:32;14.07;;;5.20;;
53875;SDS011;39789;53.216;5.624;2023-04-12T08:32:58;16.60;;;3.85;;
53875;SDS011;39789;53.216;5.624;2023-04-12T08:35:23;21.08;;;4.15;;
53875;SDS011;39789;53.216;5.624;2023-04-12T08:37:49;22.73;;;4.40;;
53875;SDS011;39789;53.216;5.624;2023-04-12T08:40:15;23.63;;;4.78;;
53875;SDS011;39789;53.216;5.624;2023-04-12T08:42:41;21.80;;;5.05;;
53875;SDS011;39789;53.216;5.624;2023-04-12T08:45:08;18.42;;;3.83;;
53875;SDS011;39789;53.216;5.624;2023-04-12T08:47:36;22.83;;;4.07;;
53875;SDS011;39789;53.216;5.624;2023-04-12T08:50:04;16.25;;;4.20;;
53875;SDS011;39789;53.216;5.624;2023-04-12T08:52:33;18.17;;;4.28;;
53875;SDS011;39789;53.216;5.624;2023-04-12T08:55:03;21.90;;;4.25;;
53875;SDS011;39789;53.216;5.624;2023-04-12T08:57:30;15.65;;;3.92;;
53875;SDS011;39789;53.216;5.624;2023-04-12T08:59:59;13.63;;;3.67;;
53875;SDS011;39789;53.216;5.624;2023-04-12T09:02:27;22.02;;;4.15;;
53875;SDS011;39789;53.216;5.624;2023-04-12T09:04:52;15.88;;;3.85;;
53875;SDS011;39789;53.216;5.624;2023-04-12T09:07:18;10.93;;;3.03;;
53875;SDS011;39789;53.216;5.624;2023-04-12T09:09:47;14.43;;;2.50;;
53875;SDS011;39789;53.216;5.624;2023-04-12T09:12:13;12.18;;;2.42;;
53875;SDS011;39789;53.216;5.624;2023-04-12T09:14:40;10.75;;;2.58;;
53875;SDS011;39789;53.216;5.624;2023-04-12T09:19:47;7.82;;;2.03;;
53875;SDS011;39789;53.216;5.624;2023-04-12T09:22:13;16.83;;;2.92;;
53875;SDS011;39789;53.216;5.624;2023-04-12T09:24:48;14.80;;;2.83;;
53875;SDS011;39789;53.216;5.624;2023-04-12T09:27:17;8.85;;;2.40;;
53875;SDS011;39789;53.216;5.624;2023-04-12T09:29:46;5.32;;;1.70;;
53875;SDS011;39789;53.216;5.624;2023-04-12T09:32:25;10.15;;;2.25;;
53875;SDS011;39789;53.216;5.624;2023-04-12T09:34:54;7.72;;;1.95;;
53875;SDS011;39789;53.216;5.624;2023-04-12T09:37:21;6.72;;;1.90;;
53875;SDS011;39789;53.216;5.624;2023-04-12T09:39:47;7.32;;;1.80;;
53875;SDS011;39789;53.216;5.624;2023-04-12T09:42:27;7.10;;;2.05;;
53875;SDS011;39789;53.216;5.624;2023-04-12T09:44:53;8.65;;;2.65;;
53875;SDS011;39789;53.216;5.624;2023-04-12T09:47:19;8.15;;;2.17;;
53875;SDS011;39789;53.216;5.624;2023-04-12T09:49:45;4.40;;;1.80;;
53875;SDS011;39789;53.216;5.624;2023-04-12T09:52:11;7.32;;;2.00;;
53875;SDS011;39789;53.216;5.624;2023-04-12T09:54:42;10.50;;;2.60;;
53875;SDS011;39789;53.216;5.624;2023-04-12T09:57:09;14.05;;;2.55;;
53875;SDS011;39789;53.216;5.624;2023-04-12T09:59:36;12.55;;;2.95;;
53875;SDS011;39789;53.216;5.624;2023-04-12T10:02:10;6.85;;;2.40;;
53875;SDS011;39789;53.216;5.624;2023-04-12T10:04:40;6.57;;;2.17;;
53875;SDS011;39789;53.216;5.624;2023-04-12T10:07:06;11.13;;;2.60;;
53875;SDS011;39789;53.216;5.624;2023-04-12T10:09:32;10.20;;;2.50;;
53875;SDS011;39789;53.216;5.624;2023-04-12T10:11:59;8.80;;;2.40;;
53875;SDS011;39789;53.216;5.624;2023-04-12T10:14:29;9.88;;;2.63;;
53875;SDS011;39789;53.216;5.624;2023-04-12T10:16:56;11.30;;;2.28;;
53875;SDS011;39789;53.216;5.624;2023-04-12T10:19:27;14.80;;;2.88;;
53875;SDS011;39789;53.216;5.624;2023-04-12T10:21:55;10.15;;;2.47;;
53875;SDS011;39789;53.216;5.624;2023-04-12T10:24:22;7.03;;;2.30;;
53875;SDS011;39789;53.216;5.624;2023-04-12T10:26:51;12.25;;;3.20;;
53875;SDS011;39789;53.216;5.624;2023-04-12T10:29:29;12.93;;;3.08;;
53875;SDS011;39789;53.216;5.624;2023-04-12T10:34:52;8.75;;;3.00;;
53875;SDS011;39789;53.216;5.624;2023-04-12T10:37:20;9.05;;;2.30;;
53875;SDS011;39789;53.216;5.624;2023-04-12T10:39:52;9.98;;;2.58;;
53875;SDS011;39789;53.216;5.624;2023-04-12T10:42:23;13.07;;;3.10;;
53875;SDS011;39789;53.216;5.624;2023-04-12T10:44:51;13.85;;;2.72;;
53875;SDS011;39789;53.216;5.624;2023-04-12T10:55:39;13.20;;;3.22;;
53875;SDS011;39789;53.216;5.624;2023-04-12T10:58:10;10.77;;;2.72;;
53875;SDS011;39789;53.216;5.624;2023-04-12T11:03:22;20.10;;;3.20;;
53875;SDS011;39789;53.216;5.624;2023-04-12T11:08:25;13.10;;;2.95;;
53875;SDS011;39789;53.216;5.624;2023-04-12T11:10:56;14.75;;;3.10;;
53875;SDS011;39789;53.216;5.624;2023-04-12T11:13:25;9.98;;;2.95;;
53875;SDS011;39789;53.216;5.624;2023-04-12T11:15:54;14.77;;;3.50;;
53875;SDS011;39789;53.216;5.624;2023-04-12T11:18:23;11.43;;;3.05;;
53875;SDS011;39789;53.216;5.624;2023-04-12T11:20:51;15.82;;;3.00;;
53875;SDS011;39789;53.216;5.624;2023-04-12T11:23:17;14.35;;;2.97;;
53875;SDS011;39789;53.216;5.624;2023-04-12T11:25:43;11.07;;;2.92;;
53875;SDS011;39789;53.216;5.624;2023-04-12T11:28:16;10.95;;;2.50;;
53875;SDS011;39789;53.216;5.624;2023-04-12T11:30:56;11.52;;;2.35;;
53875;SDS011;39789;53.216;5.624;2023-04-12T11:33:38;13.73;;;3.67;;
53875;SDS011;39789;53.216;5.624;2023-04-12T11:36:06;14.23;;;3.30;;
53875;SDS011;39789;53.216;5.624;2023-04-12T11:38:34;9.50;;;3.28;;
53875;SDS011;39789;53.216;5.624;2023-04-12T11:41:00;9.10;;;2.85;;
53875;SDS011;39789;53.216;5.624;2023-04-12T11:43:26;10.50;;;3.15;;
53875;SDS011;39789;53.216;5.624;2023-04-12T11:45:56;12.35;;;3.15;;
53875;SDS011;39789;53.216;5.624;2023-04-12T11:48:25;12.27;;;2.83;;
53875;SDS011;39789;53.216;5.624;2023-04-12T11:50:52;13.02;;;2.95;;
53875;SDS011;39789;53.216;5.624;2023-04-12T11:53:17;9.85;;;2.53;;
53875;SDS011;39789;53.216;5.624;2023-04-12T11:55:48;11.77;;;3.13;;
53875;SDS011;39789;53.216;5.624;2023-04-12T11:58:14;10.82;;;3.08;;
53875;SDS011;39789;53.216;5.624;2023-04-12T12:00:42;9.50;;;3.05;;
53875;SDS011;39789;53.216;5.624;2023-04-12T12:03:08;14.15;;;3.13;;
53875;SDS011;39789;53.216;5.624;2023-04-12T12:05:35;9.75;;;2.67;;
53875;SDS011;39789;53.216;5.624;2023-04-12T12:08:06;6.10;;;2.30;;
53875;SDS011;39789;53.216;5.624;2023-04-12T12:10:33;6.80;;;2.40;;
53875;SDS011;39789;53.216;5.624;2023-04-12T12:13:02;10.65;;;2.78;;
53875;SDS011;39789;53.216;5.624;2023-04-12T12:15:34;9.45;;;2.80;;
53875;SDS011;39789;53.216;5.624;2023-04-12T12:17:59;8.48;;;2.72;;
53875;SDS011;39789;53.216;5.624;2023-04-12T12:20:26;7.13;;;2.65;;
53875;SDS011;39789;53.216;5.624;2023-04-12T12:22:51;12.52;;;2.28;;
53875;SDS011;39789;53.216;5.624;2023-04-12T12:25:17;9.20;;;2.40;;
53875;SDS011;39789;53.216;5.624;2023-04-12T12:27:44;9.85;;;2.75;;
53875;SDS011;39789;53.216;5.624;2023-04-12T12:30:15;13.18;;;2.70;;
53875;SDS011;39789;53.216;5.624;2023-04-12T12:32:41;9.00;;;2.30;;
53875;SDS011;39789;53.216;5.624;2023-04-12T12:35:08;9.65;;;2.25;;
53875;SDS011;39789;53.216;5.624;2023-04-12T12:37:35;11.70;;;2.53;;
53875;SDS011;39789;53.216;5.624;2023-04-12T12:40:08;8.70;;;2.35;;
53875;SDS011;39789;53.216;5.624;2023-04-12T12:42:47;12.75;;;2.67;;
53875;SDS011;39789;53.216;5.624;2023-04-12T12:45:19;10.25;;;2.72;;
53875;SDS011;39789;53.216;5.624;2023-04-12T12:47:57;9.95;;;2.78;;
53875;SDS011;39789;53.216;5.624;2023-04-12T12:50:27;9.90;;;2.55;;
53875;SDS011;39789;53.216;5.624;2023-04-12T12:52:54;9.82;;;2.75;;
53875;SDS011;39789;53.216;5.624;2023-04-12T12:55:21;15.48;;;2.53;;
53875;SDS011;39789;53.216;5.624;2023-04-12T12:57:48;11.15;;;2.92;;
53875;SDS011;39789;53.216;5.624;2023-04-12T13:00:17;12.43;;;2.65;;
53875;SDS011;39789;53.216;5.624;2023-04-12T13:02:44;10.00;;;2.55;;
53875;SDS011;39789;53.216;5.624;2023-04-12T13:05:10;10.55;;;2.70;;
53875;SDS011;39789;53.216;5.624;2023-04-12T13:07:36;9.63;;;2.33;;
53875;SDS011;39789;53.216;5.624;2023-04-12T13:10:02;12.30;;;3.22;;
53875;SDS011;39789;53.216;5.624;2023-04-12T13:12:28;13.25;;;3.13;;
53875;SDS011;39789;53.216;5.624;2023-04-12T13:14:55;6.10;;;2.13;;
53875;SDS011;39789;53.216;5.624;2023-04-12T13:17:21;7.28;;;1.80;;
53875;SDS011;39789;53.216;5.624;2023-04-12T13:19:47;7.68;;;2.17;;
53875;SDS011;39789;53.216;5.624;2023-04-12T13:22:13;7.70;;;2.35;;
53875;SDS011;39789;53.216;5.624;2023-04-12T13:24:40;8.65;;;2.60;;
53875;SDS011;39789;53.216;5.624;2023-04-12T13:27:07;8.50;;;2.35;;
53875;SDS011;39789;53.216;5.624;2023-04-12T13:29:33;8.48;;;2.17;;
53875;SDS011;39789;53.216;5.624;2023-04-12T13:31:58;10.77;;;3.10;;
53875;SDS011;39789;53.216;5.624;2023-04-12T13:34:24;8.13;;;2.15;;
53875;SDS011;39789;53.216;5.624;2023-04-12T13:36:50;9.32;;;2.42;;
53875;SDS011;39789;53.216;5.624;2023-04-12T13:39:16;10.10;;;2.20;;
53875;SDS011;39789;53.216;5.624;2023-04-12T13:41:42;9.90;;;2.45;;
53875;SDS011;39789;53.216;5.624;2023-04-12T13:44:07;8.02;;;2.42;;
53875;SDS011;39789;53.216;5.624;2023-04-12T13:46:33;12.18;;;2.65;;
53875;SDS011;39789;53.216;5.624;2023-04-12T13:48:59;9.45;;;2.40;;
53875;SDS011;39789;53.216;5.624;2023-04-12T13:51:25;10.82;;;3.30;;
53875;SDS011;39789;53.216;5.624;2023-04-12T13:53:52;11.70;;;2.65;;
53875;SDS011;39789;53.216;5.624;2023-04-12T13:56:18;11.30;;;2.95;;
53875;SDS011;39789;53.216;5.624;2023-04-12T13:58:44;16.10;;;3.13;;
53875;SDS011;39789;53.216;5.624;2023-04-12T14:01:10;8.95;;;2.42;;
53875;SDS011;39789;53.216;5.624;2023-04-12T14:03:37;14.38;;;3.03;;
53875;SDS011;39789;53.216;5.624;2023-04-12T14:06:07;9.90;;;3.95;;
53875;SDS011;39789;53.216;5.624;2023-04-12T14:08:33;10.77;;;2.72;;
53875;SDS011;39789;53.216;5.624;2023-04-12T14:10:59;10.80;;;2.90;;
53875;SDS011;39789;53.216;5.624;2023-04-12T14:13:26;13.70;;;2.75;;
53875;SDS011;39789;53.216;5.624;2023-04-12T14:15:51;12.68;;;2.88;;
53875;SDS011;39789;53.216;5.624;2023-04-12T14:18:18;14.07;;;3.63;;
53875;SDS011;39789;53.216;5.624;2023-04-12T14:20:46;10.18;;;3.20;;
53875;SDS011;39789;53.216;5.624;2023-04-12T14:23:22;11.25;;;2.35;;
53875;SDS011;39789;53.216;5.624;2023-04-12T14:25:51;14.70;;;2.83;;
53875;SDS011;39789;53.216;5.624;2023-04-12T14:28:17;12.80;;;3.22;;
53875;SDS011;39789;53.216;5.624;2023-04-12T14:30:46;6.68;;;2.42;;
53875;SDS011;39789;53.216;5.624;2023-04-12T14:33:14;12.30;;;2.83;;
53875;SDS011;39789;53.216;5.624;2023-04-12T14:35:42;7.80;;;2.60;;
53875;SDS011;39789;53.216;5.624;2023-04-12T14:38:08;9.20;;;2.97;;
53875;SDS011;39789;53.216;5.624;2023-04-12T14:40:34;9.70;;;2.90;;
53875;SDS011;39789;53.216;5.624;2023-04-12T14:43:00;10.23;;;2.40;;
53875;SDS011;39789;53.216;5.624;2023-04-12T14:45:26;8.35;;;2.85;;
53875;SDS011;39789;53.216;5.624;2023-04-12T14:47:52;9.18;;;3.03;;
53875;SDS011;39789;53.216;5.624;2023-04-12T14:50:18;9.73;;;2.60;;
53875;SDS011;39789;53.216;5.624;2023-04-12T14:52:44;6.40;;;2.65;;
53875;SDS011;39789;53.216;5.624;2023-04-12T14:55:10;8.27;;;2.50;;
53875;SDS011;39789;53.216;5.624;2023-04-12T14:57:35;10.07;;;2.25;;
53875;SDS011;39789;53.216;5.624;2023-04-12T15:00:02;16.77;;;3.10;;
53875;SDS011;39789;53.216;5.624;2023-04-12T15:02:36;13.75;;;2.97;;
53875;SDS011;39789;53.216;5.624;2023-04-12T15:05:02;8.85;;;3.55;;
53875;SDS011;39789;53.216;5.624;2023-04-12T15:07:31;11.15;;;2.63;;
53875;SDS011;39789;53.216;5.624;2023-04-12T15:09:56;7.68;;;2.22;;
53875;SDS011;39789;53.216;5.624;2023-04-12T15:12:23;11.95;;;2.97;;
53875;SDS011;39789;53.216;5.624;2023-04-12T15:14:49;10.35;;;3.00;;
53875;SDS011;39789;53.216;5.624;2023-04-12T15:17:17;11.13;;;2.55;;